sensor_id;sensor_type;location;lat;lon;timestamp;temperature;humidity
52381;DHT22;38310;52.796;6.942;2023-07-31T00:01:49;15.40;99.90
52381;DHT22;38310;52.796;6.942;2023-07-31T00:04:33;15.40;99.90
52381;DHT22;38310;52.796;6.942;2023-07-31T00:06:59;15.30;99.90
52381;DHT22;38310;52.796;6.942;2023-07-31T00:09:25;15.30;99.90
52381;DHT22;38310;52.796;6.942;2023-07-31T00:11:50;15.20;99.90
52381;DHT22;38310;52.796;6.942;2023-07-31T00:14:17;15.30;99.90
52381;DHT22;38310;52.796;6.942;2023-07-31T00:16:42;15.30;99.90
52381;DHT22;38310;52.796;6.942;2023-07-31T00:19:09;15.30;99.90
52381;DHT22;38310;52.796;6.942;2023-07-31T00:21:35;15.30;99.90
52381;DHT22;38310;52.796;6.942;2023-07-31T00:24:01;15.30;99.90
52381;DHT22;38310;52.796;6.942;2023-07-31T00:26:26;15.30;99.90
52381;DHT22;38310;52.796;6.942;2023-07-31T00:28:55;15.30;99.90
52381;DHT22;38310;52.796;6.942;2023-07-31T00:31:21;15.30;99.90
52381;DHT22;38310;52.796;6.942;2023-07-31T00:33:47;15.30;99.90
52381;DHT22;38310;52.796;6.942;2023-07-31T00:36:12;15.30;99.90
52381;DHT22;38310;52.796;6.942;2023-07-31T00:38:38;15.30;99.90
52381;DHT22;38310;52.796;6.942;2023-07-31T00:41:04;15.30;99.90
52381;DHT22;38310;52.796;6.942;2023-07-31T00:43:30;15.30;99.90
52381;DHT22;38310;52.796;6.942;2023-07-31T00:45:55;15.20;99.90
52381;DHT22;38310;52.796;6.942;2023-07-31T00:48:21;15.20;99.90
52381;DHT22;38310;52.796;6.942;2023-07-31T00:50:47;15.20;99.90
52381;DHT22;38310;52.796;6.942;2023-07-31T00:53:13;15.20;99.90
52381;DHT22;38310;52.796;6.942;2023-07-31T00:55:39;15.20;99.90
52381;DHT22;38310;52.796;6.942;2023-07-31T00:58:05;15.20;99.90
52381;DHT22;38310;52.796;6.942;2023-07-31T01:00:31;15.20;99.90
52381;DHT22;38310;52.796;6.942;2023-07-31T01:02:59;15.20;99.90
52381;DHT22;38310;52.796;6.942;2023-07-31T01:06:09;15.20;99.90
52381;DHT22;38310;52.796;6.942;2023-07-31T01:11:15;15.20;99.90
52381;DHT22;38310;52.796;6.942;2023-07-31T01:13:44;15.20;99.90
52381;DHT22;38310;52.796;6.942;2023-07-31T01:16:10;15.10;99.90
52381;DHT22;38310;52.796;6.942;2023-07-31T01:18:35;15.10;99.90
52381;DHT22;38310;52.796;6.942;2023-07-31T01:21:19;15.10;99.90
52381;DHT22;38310;52.796;6.942;2023-07-31T01:26:43;15.20;99.90
52381;DHT22;38310;52.796;6.942;2023-07-31T01:31:42;15.20;99.90
52381;DHT22;38310;52.796;6.942;2023-07-31T01:34:10;15.10;99.90
52381;DHT22;38310;52.796;6.942;2023-07-31T01:36:37;15.20;99.90
52381;DHT22;38310;52.796;6.942;2023-07-31T01:39:03;15.10;99.90
52381;DHT22;38310;52.796;6.942;2023-07-31T01:41:29;15.10;99.90
52381;DHT22;38310;52.796;6.942;2023-07-31T01:43:55;15.10;99.90
52381;DHT22;38310;52.796;6.942;2023-07-31T01:46:21;15.10;99.90
52381;DHT22;38310;52.796;6.942;2023-07-31T01:48:46;15.10;99.90
52381;DHT22;38310;52.796;6.942;2023-07-31T01:51:12;15.10;99.90
52381;DHT22;38310;52.796;6.942;2023-07-31T01:53:38;15.10;99.90
52381;DHT22;38310;52.796;6.942;2023-07-31T01:56:04;15.10;99.90
52381;DHT22;38310;52.796;6.942;2023-07-31T01:58:30;15.10;99.90
52381;DHT22;38310;52.796;6.942;2023-07-31T02:00:56;15.10;99.90
52381;DHT22;38310;52.796;6.942;2023-07-31T02:03:22;15.10;99.90
52381;DHT22;38310;52.796;6.942;2023-07-31T02:05:49;15.00;99.90
52381;DHT22;38310;52.796;6.942;2023-07-31T02:08:16;15.00;99.90
52381;DHT22;38310;52.796;6.942;2023-07-31T02:10:42;15.00;99.90
52381;DHT22;38310;52.796;6.942;2023-07-31T02:13:08;15.00;99.90
52381;DHT22;38310;52.796;6.942;2023-07-31T02:15:34;15.00;99.90
52381;DHT22;38310;52.796;6.942;2023-07-31T02:18:00;15.00;99.90
52381;DHT22;38310;52.796;6.942;2023-07-31T02:20:26;15.00;99.90
52381;DHT22;38310;52.796;6.942;2023-07-31T02:22:53;15.00;99.90
52381;DHT22;38310;52.796;6.942;2023-07-31T02:25:25;15.10;99.90
52381;DHT22;38310;52.796;6.942;2023-07-31T02:27:51;15.00;99.90
52381;DHT22;38310;52.796;6.942;2023-07-31T02:30:17;15.00;99.90
52381;DHT22;38310;52.796;6.942;2023-07-31T02:32:43;15.10;99.90
52381;DHT22;38310;52.796;6.942;2023-07-31T02:35:08;15.10;99.90
52381;DHT22;38310;52.796;6.942;2023-07-31T02:37:34;15.10;99.90
52381;DHT22;38310;52.796;6.942;2023-07-31T02:40:00;15.10;99.90
52381;DHT22;38310;52.796;6.942;2023-07-31T02:42:26;15.10;99.90
52381;DHT22;38310;52.796;6.942;2023-07-31T02:44:51;15.10;99.90
52381;DHT22;38310;52.796;6.942;2023-07-31T02:47:21;15.20;99.90
52381;DHT22;38310;52.796;6.942;2023-07-31T02:49:47;15.20;99.90
52381;DHT22;38310;52.796;6.942;2023-07-31T02:52:13;15.20;99.90
52381;DHT22;38310;52.796;6.942;2023-07-31T02:54:39;15.20;99.90
52381;DHT22;38310;52.796;6.942;2023-07-31T02:57:05;15.20;99.90
52381;DHT22;38310;52.796;6.942;2023-07-31T02:59:31;15.20;99.90
52381;DHT22;38310;52.796;6.942;2023-07-31T03:01:57;15.30;99.90
52381;DHT22;38310;52.796;6.942;2023-07-31T03:04:23;15.30;99.90
52381;DHT22;38310;52.796;6.942;2023-07-31T03:06:49;15.30;99.90
52381;DHT22;38310;52.796;6.942;2023-07-31T03:09:14;15.30;99.90
52381;DHT22;38310;52.796;6.942;2023-07-31T03:11:40;15.30;99.90
52381;DHT22;38310;52.796;6.942;2023-07-31T03:14:06;15.30;99.90
52381;DHT22;38310;52.796;6.942;2023-07-31T03:16:31;15.30;99.90
52381;DHT22;38310;52.796;6.942;2023-07-31T03:18:57;15.40;99.90
52381;DHT22;38310;52.796;6.942;2023-07-31T03:21:23;15.40;99.90
52381;DHT22;38310;52.796;6.942;2023-07-31T03:23:49;15.40;99.90
52381;DHT22;38310;52.796;6.942;2023-07-31T03:26:14;15.40;99.90
52381;DHT22;38310;52.796;6.942;2023-07-31T03:28:40;15.40;99.90
52381;DHT22;38310;52.796;6.942;2023-07-31T03:31:06;15.40;99.90
52381;DHT22;38310;52.796;6.942;2023-07-31T03:33:34;15.40;99.90
52381;DHT22;38310;52.796;6.942;2023-07-31T03:35:59;15.40;99.90
52381;DHT22;38310;52.796;6.942;2023-07-31T03:38:25;15.50;99.90
52381;DHT22;38310;52.796;6.942;2023-07-31T03:40:51;15.50;99.90
52381;DHT22;38310;52.796;6.942;2023-07-31T03:43:17;15.50;99.90
52381;DHT22;38310;52.796;6.942;2023-07-31T03:45:42;15.50;99.90
52381;DHT22;38310;52.796;6.942;2023-07-31T03:48:09;15.50;99.90
52381;DHT22;38310;52.796;6.942;2023-07-31T03:50:35;15.50;99.90
52381;DHT22;38310;52.796;6.942;2023-07-31T03:53:04;15.50;99.90
52381;DHT22;38310;52.796;6.942;2023-07-31T03:55:30;15.50;99.90
52381;DHT22;38310;52.796;6.942;2023-07-31T03:57:56;15.50;99.90
52381;DHT22;38310;52.796;6.942;2023-07-31T04:00:22;15.50;99.90
52381;DHT22;38310;52.796;6.942;2023-07-31T04:02:48;15.50;99.90
52381;DHT22;38310;52.796;6.942;2023-07-31T04:05:14;15.60;99.90
52381;DHT22;38310;52.796;6.942;2023-07-31T04:07:39;15.50;99.90
52381;DHT22;38310;52.796;6.942;2023-07-31T04:10:06;15.60;99.90
52381;DHT22;38310;52.796;6.942;2023-07-31T04:12:32;15.60;99.90
52381;DHT22;38310;52.796;6.942;2023-07-31T04:14:57;15.60;99.90
52381;DHT22;38310;52.796;6.942;2023-07-31T04:17:23;15.60;99.90
52381;DHT22;38310;52.796;6.942;2023-07-31T04:19:49;15.60;99.90
52381;DHT22;38310;52.796;6.942;2023-07-31T04:22:14;15.60;99.90
52381;DHT22;38310;52.796;6.942;2023-07-31T04:24:40;15.70;99.90
52381;DHT22;38310;52.796;6.942;2023-07-31T04:27:09;15.70;99.90
52381;DHT22;38310;52.796;6.942;2023-07-31T04:29:35;15.70;99.90
52381;DHT22;38310;52.796;6.942;2023-07-31T04:32:00;15.70;99.90
52381;DHT22;38310;52.796;6.942;2023-07-31T04:34:26;15.70;99.90
52381;DHT22;38310;52.796;6.942;2023-07-31T04:36:52;15.70;99.90
52381;DHT22;38310;52.796;6.942;2023-07-31T04:39:17;15.80;99.90
52381;DHT22;38310;52.796;6.942;2023-07-31T04:41:43;15.80;99.90
52381;DHT22;38310;52.796;6.942;2023-07-31T04:44:09;15.80;99.90
52381;DHT22;38310;52.796;6.942;2023-07-31T04:46:36;15.80;99.90
52381;DHT22;38310;52.796;6.942;2023-07-31T04:49:03;15.80;99.90
52381;DHT22;38310;52.796;6.942;2023-07-31T04:51:28;15.80;99.90
52381;DHT22;38310;52.796;6.942;2023-07-31T04:53:55;15.80;99.90
52381;DHT22;38310;52.796;6.942;2023-07-31T04:56:21;15.80;99.90
52381;DHT22;38310;52.796;6.942;2023-07-31T04:58:47;15.90;99.90
52381;DHT22;38310;52.796;6.942;2023-07-31T05:01:13;15.80;99.90
52381;DHT22;38310;52.796;6.942;2023-07-31T05:03:38;15.90;99.90
52381;DHT22;38310;52.796;6.942;2023-07-31T05:06:05;15.90;99.90
52381;DHT22;38310;52.796;6.942;2023-07-31T05:08:32;15.90;99.90
52381;DHT22;38310;52.796;6.942;2023-07-31T05:10:59;15.30;99.90
52381;DHT22;38310;52.796;6.942;2023-07-31T05:13:24;15.90;99.90
52381;DHT22;38310;52.796;6.942;2023-07-31T05:15:50;16.00;99.90
52381;DHT22;38310;52.796;6.942;2023-07-31T05:18:17;16.00;99.90
52381;DHT22;38310;52.796;6.942;2023-07-31T05:20:43;16.00;99.90
52381;DHT22;38310;52.796;6.942;2023-07-31T05:23:08;16.00;99.90
52381;DHT22;38310;52.796;6.942;2023-07-31T05:25:34;16.00;99.90
52381;DHT22;38310;52.796;6.942;2023-07-31T05:28:00;16.10;99.90
52381;DHT22;38310;52.796;6.942;2023-07-31T05:30:26;16.00;99.90
52381;DHT22;38310;52.796;6.942;2023-07-31T05:32:52;16.10;99.90
52381;DHT22;38310;52.796;6.942;2023-07-31T05:35:17;16.10;99.90
52381;DHT22;38310;52.796;6.942;2023-07-31T05:37:43;16.30;99.90
52381;DHT22;38310;52.796;6.942;2023-07-31T05:40:09;16.10;99.90
52381;DHT22;38310;52.796;6.942;2023-07-31T05:42:35;16.20;99.90
52381;DHT22;38310;52.796;6.942;2023-07-31T05:45:04;16.20;99.90
52381;DHT22;38310;52.796;6.942;2023-07-31T05:47:30;16.20;99.90
52381;DHT22;38310;52.796;6.942;2023-07-31T05:49:55;16.20;99.90
52381;DHT22;38310;52.796;6.942;2023-07-31T05:52:21;16.20;99.90
52381;DHT22;38310;52.796;6.942;2023-07-31T05:54:47;16.20;99.90
52381;DHT22;38310;52.796;6.942;2023-07-31T05:57:12;16.20;99.90
52381;DHT22;38310;52.796;6.942;2023-07-31T05:59:38;16.30;99.90
52381;DHT22;38310;52.796;6.942;2023-07-31T06:02:04;16.30;99.90
52381;DHT22;38310;52.796;6.942;2023-07-31T06:04:30;16.30;99.90
52381;DHT22;38310;52.796;6.942;2023-07-31T06:06:56;16.30;99.90
52381;DHT22;38310;52.796;6.942;2023-07-31T06:09:22;16.30;99.90
52381;DHT22;38310;52.796;6.942;2023-07-31T06:11:48;16.30;99.90
52381;DHT22;38310;52.796;6.942;2023-07-31T06:14:13;16.30;99.90
52381;DHT22;38310;52.796;6.942;2023-07-31T06:16:40;16.40;99.90
52381;DHT22;38310;52.796;6.942;2023-07-31T06:19:06;16.30;99.90
52381;DHT22;38310;52.796;6.942;2023-07-31T06:21:33;16.40;99.90
52381;DHT22;38310;52.796;6.942;2023-07-31T06:23:59;16.40;99.90
52381;DHT22;38310;52.796;6.942;2023-07-31T06:26:24;16.40;99.90
52381;DHT22;38310;52.796;6.942;2023-07-31T06:28:50;16.40;99.90
52381;DHT22;38310;52.796;6.942;2023-07-31T06:31:16;16.40;99.90
52381;DHT22;38310;52.796;6.942;2023-07-31T06:33:44;16.50;99.90
52381;DHT22;38310;52.796;6.942;2023-07-31T06:36:10;16.40;99.90
52381;DHT22;38310;52.796;6.942;2023-07-31T06:38:36;16.40;99.90
52381;DHT22;38310;52.796;6.942;2023-07-31T06:41:03;16.40;99.90
52381;DHT22;38310;52.796;6.942;2023-07-31T06:43:29;16.40;99.90
52381;DHT22;38310;52.796;6.942;2023-07-31T06:45:55;16.40;99.90
52381;DHT22;38310;52.796;6.942;2023-07-31T06:48:20;16.50;99.90
52381;DHT22;38310;52.796;6.942;2023-07-31T06:50:46;16.40;99.90
52381;DHT22;38310;52.796;6.942;2023-07-31T06:53:12;16.40;99.90
52381;DHT22;38310;52.796;6.942;2023-07-31T06:55:37;16.40;99.90
52381;DHT22;38310;52.796;6.942;2023-07-31T06:58:03;16.50;99.90
52381;DHT22;38310;52.796;6.942;2023-07-31T07:00:29;16.50;99.90
52381;DHT22;38310;52.796;6.942;2023-07-31T07:02:55;16.50;99.90
52381;DHT22;38310;52.796;6.942;2023-07-31T07:05:21;16.50;99.90
52381;DHT22;38310;52.796;6.942;2023-07-31T07:07:48;16.50;99.90
52381;DHT22;38310;52.796;6.942;2023-07-31T07:10:14;16.40;99.90
52381;DHT22;38310;52.796;6.942;2023-07-31T07:12:40;16.50;99.90
52381;DHT22;38310;52.796;6.942;2023-07-31T07:15:06;16.40;99.90
52381;DHT22;38310;52.796;6.942;2023-07-31T07:17:32;16.50;99.90
52381;DHT22;38310;52.796;6.942;2023-07-31T07:19:58;16.40;99.90
52381;DHT22;38310;52.796;6.942;2023-07-31T07:22:25;16.40;99.90
52381;DHT22;38310;52.796;6.942;2023-07-31T07:24:51;16.30;99.90
52381;DHT22;38310;52.796;6.942;2023-07-31T07:27:17;16.40;99.90
52381;DHT22;38310;52.796;6.942;2023-07-31T07:29:42;16.40;99.90
52381;DHT22;38310;52.796;6.942;2023-07-31T07:32:08;16.40;99.90
52381;DHT22;38310;52.796;6.942;2023-07-31T07:34:34;16.40;99.90
52381;DHT22;38310;52.796;6.942;2023-07-31T07:37:00;16.40;99.90
52381;DHT22;38310;52.796;6.942;2023-07-31T07:39:25;16.30;99.90
52381;DHT22;38310;52.796;6.942;2023-07-31T07:41:51;16.30;99.90
52381;DHT22;38310;52.796;6.942;2023-07-31T07:44:18;16.40;99.90
52381;DHT22;38310;52.796;6.942;2023-07-31T07:46:44;16.40;99.90
52381;DHT22;38310;52.796;6.942;2023-07-31T07:49:10;16.40;99.90
52381;DHT22;38310;52.796;6.942;2023-07-31T07:51:35;16.40;99.90
52381;DHT22;38310;52.796;6.942;2023-07-31T07:54:02;16.40;99.90
52381;DHT22;38310;52.796;6.942;2023-07-31T07:56:28;16.30;99.90
52381;DHT22;38310;52.796;6.942;2023-07-31T07:58:54;16.30;99.90
52381;DHT22;38310;52.796;6.942;2023-07-31T08:01:20;16.40;99.90
52381;DHT22;38310;52.796;6.942;2023-07-31T08:03:50;16.40;99.90
52381;DHT22;38310;52.796;6.942;2023-07-31T08:06:15;16.40;99.90
52381;DHT22;38310;52.796;6.942;2023-07-31T08:08:42;16.30;99.90
52381;DHT22;38310;52.796;6.942;2023-07-31T08:11:08;16.40;99.90
52381;DHT22;38310;52.796;6.942;2023-07-31T08:13:33;16.40;99.90
52381;DHT22;38310;52.796;6.942;2023-07-31T08:15:59;16.40;99.90
52381;DHT22;38310;52.796;6.942;2023-07-31T08:18:25;16.50;99.90
52381;DHT22;38310;52.796;6.942;2023-07-31T08:20:51;16.60;99.90
52381;DHT22;38310;52.796;6.942;2023-07-31T08:23:16;16.60;99.90
52381;DHT22;38310;52.796;6.942;2023-07-31T08:25:42;16.50;99.90
52381;DHT22;38310;52.796;6.942;2023-07-31T08:28:09;16.60;99.90
52381;DHT22;38310;52.796;6.942;2023-07-31T08:30:35;16.60;99.90
52381;DHT22;38310;52.796;6.942;2023-07-31T08:33:01;16.60;99.90
52381;DHT22;38310;52.796;6.942;2023-07-31T08:35:27;16.60;99.90
52381;DHT22;38310;52.796;6.942;2023-07-31T08:37:55;16.60;99.90
52381;DHT22;38310;52.796;6.942;2023-07-31T08:40:21;16.60;99.90
52381;DHT22;38310;52.796;6.942;2023-07-31T08:42:52;16.60;99.90
52381;DHT22;38310;52.796;6.942;2023-07-31T08:45:19;16.60;99.90
52381;DHT22;38310;52.796;6.942;2023-07-31T08:47:47;16.70;99.90
52381;DHT22;38310;52.796;6.942;2023-07-31T08:50:14;16.70;99.90
52381;DHT22;38310;52.796;6.942;2023-07-31T08:52:40;16.70;99.90
52381;DHT22;38310;52.796;6.942;2023-07-31T08:55:07;16.70;99.90
52381;DHT22;38310;52.796;6.942;2023-07-31T08:57:36;16.70;99.90
52381;DHT22;38310;52.796;6.942;2023-07-31T09:00:07;16.80;99.90
52381;DHT22;38310;52.796;6.942;2023-07-31T09:02:43;16.80;99.90
52381;DHT22;38310;52.796;6.942;2023-07-31T09:05:14;16.90;99.90
52381;DHT22;38310;52.796;6.942;2023-07-31T09:07:40;16.90;99.90
52381;DHT22;38310;52.796;6.942;2023-07-31T09:10:08;17.00;99.90
52381;DHT22;38310;52.796;6.942;2023-07-31T09:12:34;17.00;99.90
52381;DHT22;38310;52.796;6.942;2023-07-31T09:15:00;17.10;99.90
52381;DHT22;38310;52.796;6.942;2023-07-31T09:17:33;17.20;99.90
52381;DHT22;38310;52.796;6.942;2023-07-31T09:20:16;17.10;99.90
52381;DHT22;38310;52.796;6.942;2023-07-31T09:22:43;17.20;99.90
52381;DHT22;38310;52.796;6.942;2023-07-31T09:25:21;17.30;99.90
52381;DHT22;38310;52.796;6.942;2023-07-31T09:27:57;17.30;99.90
52381;DHT22;38310;52.796;6.942;2023-07-31T09:30:23;17.30;99.90
52381;DHT22;38310;52.796;6.942;2023-07-31T09:32:51;17.30;99.90
52381;DHT22;38310;52.796;6.942;2023-07-31T09:35:43;17.40;99.90
52381;DHT22;38310;52.796;6.942;2023-07-31T09:38:13;17.40;99.90
52381;DHT22;38310;52.796;6.942;2023-07-31T09:40:41;17.50;99.90
52381;DHT22;38310;52.796;6.942;2023-07-31T09:43:12;17.40;99.90
52381;DHT22;38310;52.796;6.942;2023-07-31T09:45:39;17.50;99.90
52381;DHT22;38310;52.796;6.942;2023-07-31T09:48:14;17.50;99.90
52381;DHT22;38310;52.796;6.942;2023-07-31T09:50:46;17.50;99.90
52381;DHT22;38310;52.796;6.942;2023-07-31T09:53:13;17.60;99.90
52381;DHT22;38310;52.796;6.942;2023-07-31T09:55:41;17.60;99.90
52381;DHT22;38310;52.796;6.942;2023-07-31T09:58:09;17.60;99.90
52381;DHT22;38310;52.796;6.942;2023-07-31T10:00:36;17.60;99.90
52381;DHT22;38310;52.796;6.942;2023-07-31T10:03:07;17.70;99.90
52381;DHT22;38310;52.796;6.942;2023-07-31T10:05:35;17.70;99.90
52381;DHT22;38310;52.796;6.942;2023-07-31T10:08:01;17.70;99.90
52381;DHT22;38310;52.796;6.942;2023-07-31T10:10:30;17.80;99.90
52381;DHT22;38310;52.796;6.942;2023-07-31T10:12:57;17.70;99.90
52381;DHT22;38310;52.796;6.942;2023-07-31T10:15:31;17.70;99.90
52381;DHT22;38310;52.796;6.942;2023-07-31T10:17:58;17.70;99.90
52381;DHT22;38310;52.796;6.942;2023-07-31T10:20:24;17.70;99.90
52381;DHT22;38310;52.796;6.942;2023-07-31T10:22:52;17.70;99.90
52381;DHT22;38310;52.796;6.942;2023-07-31T10:25:19;17.70;99.90
52381;DHT22;38310;52.796;6.942;2023-07-31T10:27:47;17.70;99.90
52381;DHT22;38310;52.796;6.942;2023-07-31T10:30:16;17.70;99.90
52381;DHT22;38310;52.796;6.942;2023-07-31T10:32:43;17.70;99.90
52381;DHT22;38310;52.796;6.942;2023-07-31T10:35:10;17.80;99.90
52381;DHT22;38310;52.796;6.942;2023-07-31T10:37:41;17.90;99.90
52381;DHT22;38310;52.796;6.942;2023-07-31T10:40:12;17.90;99.90
52381;DHT22;38310;52.796;6.942;2023-07-31T10:42:54;18.00;99.90
52381;DHT22;38310;52.796;6.942;2023-07-31T10:48:13;17.90;99.90
52381;DHT22;38310;52.796;6.942;2023-07-31T10:50:54;18.00;99.90
52381;DHT22;38310;52.796;6.942;2023-07-31T10:53:24;18.00;99.90
52381;DHT22;38310;52.796;6.942;2023-07-31T10:55:50;18.10;99.90
52381;DHT22;38310;52.796;6.942;2023-07-31T10:58:20;18.10;99.90
52381;DHT22;38310;52.796;6.942;2023-07-31T11:00:46;18.10;99.90
52381;DHT22;38310;52.796;6.942;2023-07-31T11:03:17;18.10;99.90
52381;DHT22;38310;52.796;6.942;2023-07-31T11:05:59;18.10;99.90
52381;DHT22;38310;52.796;6.942;2023-07-31T11:08:26;18.10;99.90
52381;DHT22;38310;52.796;6.942;2023-07-31T11:13:46;18.10;99.90
52381;DHT22;38310;52.796;6.942;2023-07-31T11:16:16;18.40;99.90
52381;DHT22;38310;52.796;6.942;2023-07-31T11:18:43;18.50;99.90
52381;DHT22;38310;52.796;6.942;2023-07-31T11:21:18;18.60;99.90
52381;DHT22;38310;52.796;6.942;2023-07-31T11:23:48;18.70;99.90
52381;DHT22;38310;52.796;6.942;2023-07-31T11:26:15;18.90;99.90
52381;DHT22;38310;52.796;6.942;2023-07-31T11:28:43;18.80;99.90
52381;DHT22;38310;52.796;6.942;2023-07-31T11:31:09;18.80;99.90
52381;DHT22;38310;52.796;6.942;2023-07-31T11:33:35;18.70;99.90
52381;DHT22;38310;52.796;6.942;2023-07-31T11:36:01;18.70;99.90
52381;DHT22;38310;52.796;6.942;2023-07-31T11:38:29;18.80;99.90
52381;DHT22;38310;52.796;6.942;2023-07-31T11:40:57;18.70;99.90
52381;DHT22;38310;52.796;6.942;2023-07-31T11:43:23;18.60;99.90
52381;DHT22;38310;52.796;6.942;2023-07-31T11:45:51;18.60;99.90
52381;DHT22;38310;52.796;6.942;2023-07-31T11:48:37;18.60;99.90
52381;DHT22;38310;52.796;6.942;2023-07-31T11:51:05;19.20;99.90
52381;DHT22;38310;52.796;6.942;2023-07-31T11:53:33;18.70;99.90
52381;DHT22;38310;52.796;6.942;2023-07-31T11:56:01;18.70;99.90
52381;DHT22;38310;52.796;6.942;2023-07-31T11:58:31;18.70;99.90
52381;DHT22;38310;52.796;6.942;2023-07-31T12:00:57;18.80;99.90
52381;DHT22;38310;52.796;6.942;2023-07-31T12:03:29;18.80;99.90
52381;DHT22;38310;52.796;6.942;2023-07-31T12:05:56;18.70;99.90
52381;DHT22;38310;52.796;6.942;2023-07-31T12:08:25;18.70;99.90
52381;DHT22;38310;52.796;6.942;2023-07-31T12:10:53;18.70;99.90
52381;DHT22;38310;52.796;6.942;2023-07-31T12:13:26;18.70;99.90
52381;DHT22;38310;52.796;6.942;2023-07-31T12:15:58;18.70;99.90
52381;DHT22;38310;52.796;6.942;2023-07-31T12:18:26;18.50;99.90
52381;DHT22;38310;52.796;6.942;2023-07-31T12:21:00;18.50;99.90
52381;DHT22;38310;52.796;6.942;2023-07-31T12:23:28;18.50;99.90
52381;DHT22;38310;52.796;6.942;2023-07-31T12:28:45;18.70;99.90
52381;DHT22;38310;52.796;6.942;2023-07-31T12:31:14;18.70;99.90
52381;DHT22;38310;52.796;6.942;2023-07-31T12:33:43;18.60;99.90
52381;DHT22;38310;52.796;6.942;2023-07-31T12:36:11;18.70;99.90
52381;DHT22;38310;52.796;6.942;2023-07-31T12:38:39;18.60;99.90
52381;DHT22;38310;52.796;6.942;2023-07-31T12:41:05;18.70;99.90
52381;DHT22;38310;52.796;6.942;2023-07-31T12:43:33;18.70;99.90
52381;DHT22;38310;52.796;6.942;2023-07-31T12:46:05;18.90;99.90
52381;DHT22;38310;52.796;6.942;2023-07-31T12:48:41;18.90;99.90
52381;DHT22;38310;52.796;6.942;2023-07-31T12:51:07;18.90;99.90
52381;DHT22;38310;52.796;6.942;2023-07-31T12:53:33;18.90;99.90
52381;DHT22;38310;52.796;6.942;2023-07-31T12:55:59;18.90;99.90
52381;DHT22;38310;52.796;6.942;2023-07-31T12:58:25;18.90;99.90
52381;DHT22;38310;52.796;6.942;2023-07-31T13:00:51;18.90;99.90
52381;DHT22;38310;52.796;6.942;2023-07-31T13:03:17;18.90;99.90
52381;DHT22;38310;52.796;6.942;2023-07-31T13:05:42;18.90;99.90
52381;DHT22;38310;52.796;6.942;2023-07-31T13:08:08;19.00;99.90
52381;DHT22;38310;52.796;6.942;2023-07-31T13:10:34;19.50;99.90
52381;DHT22;38310;52.796;6.942;2023-07-31T13:12:59;19.80;99.90
52381;DHT22;38310;52.796;6.942;2023-07-31T13:15:25;20.30;99.90
52381;DHT22;38310;52.796;6.942;2023-07-31T13:17:51;20.40;99.90
52381;DHT22;38310;52.796;6.942;2023-07-31T13:20:17;20.50;99.90
52381;DHT22;38310;52.796;6.942;2023-07-31T13:22:42;20.40;99.90
52381;DHT22;38310;52.796;6.942;2023-07-31T13:25:08;20.40;99.90
52381;DHT22;38310;52.796;6.942;2023-07-31T13:27:35;20.20;99.90
52381;DHT22;38310;52.796;6.942;2023-07-31T13:30:00;20.20;99.90
52381;DHT22;38310;52.796;6.942;2023-07-31T13:32:26;20.00;99.90
52381;DHT22;38310;52.796;6.942;2023-07-31T13:34:52;19.90;99.90
52381;DHT22;38310;52.796;6.942;2023-07-31T13:37:18;20.10;99.90
52381;DHT22;38310;52.796;6.942;2023-07-31T13:39:44;19.90;99.90
52381;DHT22;38310;52.796;6.942;2023-07-31T13:42:09;19.90;99.90
52381;DHT22;38310;52.796;6.942;2023-07-31T13:44:41;19.90;99.90
52381;DHT22;38310;52.796;6.942;2023-07-31T13:47:07;19.90;99.90
52381;DHT22;38310;52.796;6.942;2023-07-31T13:49:34;19.80;99.90
52381;DHT22;38310;52.796;6.942;2023-07-31T13:52:00;19.80;99.90
52381;DHT22;38310;52.796;6.942;2023-07-31T13:54:26;19.90;99.90
52381;DHT22;38310;52.796;6.942;2023-07-31T13:56:52;19.90;99.90
52381;DHT22;38310;52.796;6.942;2023-07-31T13:59:18;19.90;99.90
52381;DHT22;38310;52.796;6.942;2023-07-31T14:01:45;19.80;99.90
52381;DHT22;38310;52.796;6.942;2023-07-31T14:04:11;20.00;99.90
52381;DHT22;38310;52.796;6.942;2023-07-31T14:06:36;20.00;99.90
52381;DHT22;38310;52.796;6.942;2023-07-31T14:09:03;20.10;99.90
52381;DHT22;38310;52.796;6.942;2023-07-31T14:11:30;19.90;99.90
52381;DHT22;38310;52.796;6.942;2023-07-31T14:13:56;19.80;99.90
52381;DHT22;38310;52.796;6.942;2023-07-31T14:16:22;19.90;99.90
52381;DHT22;38310;52.796;6.942;2023-07-31T14:18:47;20.00;99.90
52381;DHT22;38310;52.796;6.942;2023-07-31T14:21:19;20.00;99.90
52381;DHT22;38310;52.796;6.942;2023-07-31T14:23:45;20.10;99.90
52381;DHT22;38310;52.796;6.942;2023-07-31T14:26:11;20.00;99.90
52381;DHT22;38310;52.796;6.942;2023-07-31T14:28:37;20.10;99.90
52381;DHT22;38310;52.796;6.942;2023-07-31T14:31:03;20.00;99.90
52381;DHT22;38310;52.796;6.942;2023-07-31T14:33:29;19.90;99.90
52381;DHT22;38310;52.796;6.942;2023-07-31T14:35:55;19.80;99.90
52381;DHT22;38310;52.796;6.942;2023-07-31T14:38:20;19.90;99.90
52381;DHT22;38310;52.796;6.942;2023-07-31T14:40:46;19.90;99.90
52381;DHT22;38310;52.796;6.942;2023-07-31T14:43:12;19.90;99.90
52381;DHT22;38310;52.796;6.942;2023-07-31T14:45:38;20.00;99.90
52381;DHT22;38310;52.796;6.942;2023-07-31T14:48:04;20.10;99.90
52381;DHT22;38310;52.796;6.942;2023-07-31T14:50:30;20.20;99.90
52381;DHT22;38310;52.796;6.942;2023-07-31T14:52:55;20.20;99.90
52381;DHT22;38310;52.796;6.942;2023-07-31T14:55:21;20.30;99.90
52381;DHT22;38310;52.796;6.942;2023-07-31T14:57:47;20.40;99.90
52381;DHT22;38310;52.796;6.942;2023-07-31T15:00:13;20.30;99.90
52381;DHT22;38310;52.796;6.942;2023-07-31T15:02:40;20.40;99.90
52381;DHT22;38310;52.796;6.942;2023-07-31T15:05:07;20.40;99.90
52381;DHT22;38310;52.796;6.942;2023-07-31T15:07:33;20.50;99.90
52381;DHT22;38310;52.796;6.942;2023-07-31T15:10:04;20.30;99.90
52381;DHT22;38310;52.796;6.942;2023-07-31T15:12:30;20.20;99.90
52381;DHT22;38310;52.796;6.942;2023-07-31T15:14:56;20.10;99.90
52381;DHT22;38310;52.796;6.942;2023-07-31T15:17:21;20.10;99.90
52381;DHT22;38310;52.796;6.942;2023-07-31T15:19:47;20.10;99.90
52381;DHT22;38310;52.796;6.942;2023-07-31T15:22:13;20.00;99.90
52381;DHT22;38310;52.796;6.942;2023-07-31T15:24:39;19.90;99.90
52381;DHT22;38310;52.796;6.942;2023-07-31T15:27:05;19.90;99.90
52381;DHT22;38310;52.796;6.942;2023-07-31T15:29:31;19.70;99.90
52381;DHT22;38310;52.796;6.942;2023-07-31T15:31:58;19.80;99.90
52381;DHT22;38310;52.796;6.942;2023-07-31T15:34:24;19.70;99.90
52381;DHT22;38310;52.796;6.942;2023-07-31T15:36:50;19.70;99.90
52381;DHT22;38310;52.796;6.942;2023-07-31T15:39:15;19.70;99.90
52381;DHT22;38310;52.796;6.942;2023-07-31T15:41:41;19.80;99.90
52381;DHT22;38310;52.796;6.942;2023-07-31T15:44:07;19.80;99.90
52381;DHT22;38310;52.796;6.942;2023-07-31T15:46:33;19.80;99.90